Time;durP1;ratioP1;P1;durP2;ratioP2;P2;SDS_P1;SDS_P2;PMS_P1;PMS_P2;Temp;Humidity;BMP_temperature;BMP_pressure;BME280_temperature;BME280_humidity;BME280_pressure;Samples;Min_cycle;Max_cycle;Signal;HPM_P1;HPM_P2
2022/04/08 00:00:07;;;;;;;0.60;0.20;;;9.60;99.90;;;;;;5073739;28;20442;-77
2022/04/08 00:02:38;;;;;;;0.60;0.27;;;9.50;99.90;;;;;;5072762;28;20492;-76
2022/04/08 00:05:07;;;;;;;0.60;0.20;;;9.50;99.90;;;;;;5072463;28;20594;-76
2022/04/08 00:07:35;;;;;;;0.80;0.50;;;9.50;99.90;;;;;;5075410;28;20797;-77
2022/04/08 00:10:04;;;;;;;1.63;0.40;;;9.50;99.90;;;;;;5073840;28;20504;-74
2022/04/08 00:12:33;;;;;;;0.60;0.20;;;9.50;99.90;;;;;;5072177;28;20552;-77
2022/04/08 00:15:03;;;;;;;0.60;0.30;;;9.40;99.90;;;;;;5073047;28;20866;-78
2022/04/08 00:17:31;;;;;;;0.60;0.20;;;9.50;99.90;;;;;;5073628;28;20472;-77
2022/04/08 00:19:59;;;;;;;2.37;1.40;;;9.40;99.90;;;;;;5072145;28;20463;-75
2022/04/08 00:22:28;;;;;;;0.80;0.30;;;9.40;99.90;;;;;;5071513;28;20510;-75
2022/04/08 00:24:56;;;;;;;3.07;0.50;;;9.40;99.90;;;;;;5071559;28;20454;-76
2022/04/08 00:27:23;;;;;;;2.00;1.40;;;9.40;99.90;;;;;;5072256;28;20444;-77
2022/04/08 00:29:53;;;;;;;0.90;0.40;;;9.40;99.90;;;;;;5073338;28;20477;-75
2022/04/08 00:32:20;;;;;;;4.00;0.80;;;9.40;99.90;;;;;;5072237;28;20464;-74
2022/04/08 00:34:48;;;;;;;3.70;1.80;;;9.40;99.90;;;;;;5071742;28;20456;-76
2022/04/08 00:37:16;;;;;;;0.90;0.40;;;9.40;99.90;;;;;;5071137;28;20446;-77
2022/04/08 00:39:44;;;;;;;0.60;0.33;;;9.40;99.90;;;;;;5071519;28;20485;-76
2022/04/08 00:42:13;;;;;;;1.43;0.30;;;9.40;99.90;;;;;;5071433;28;20901;-75
2022/04/08 00:44:41;;;;;;;0.70;0.20;;;9.40;99.90;;;;;;5071799;28;20568;-77
2022/04/08 00:47:11;;;;;;;0.70;0.30;;;9.40;99.90;;;;;;5072188;28;20445;-77
2022/04/08 00:49:40;;;;;;;6.73;0.80;;;9.40;99.90;;;;;;5072186;28;20480;-76
2022/04/08 00:52:08;;;;;;;5.10;0.47;;;9.40;99.90;;;;;;5074626;28;20962;-76
2022/04/08 00:54:37;;;;;;;0.60;0.20;;;9.40;99.90;;;;;;5074538;28;20443;-74
2022/04/08 00:57:06;;;;;;;6.03;0.77;;;9.40;99.90;;;;;;5074539;28;20942;-76
2022/04/08 00:59:34;;;;;;;6.63;2.23;;;9.40;99.90;;;;;;5079135;28;20534;-76
2022/04/08 01:02:02;;;;;;;0.60;0.30;;;9.40;99.90;;;;;;5079470;28;20804;-76
2022/04/08 01:04:32;;;;;;;5.40;0.80;;;9.40;99.90;;;;;;5075876;28;21248;-75
2022/04/08 01:07:02;;;;;;;0.60;0.30;;;9.40;99.90;;;;;;5072180;28;20452;-76
2022/04/08 01:09:30;;;;;;;0.60;0.30;;;9.40;99.90;;;;;;5074115;28;20473;-75
2022/04/08 01:11:58;;;;;;;0.70;0.20;;;9.40;99.90;;;;;;5076295;28;20474;-76
2022/04/08 01:14:26;;;;;;;2.10;1.87;;;9.40;99.90;;;;;;5075293;28;20500;-76
2022/04/08 01:16:54;;;;;;;3.33;1.40;;;9.40;99.90;;;;;;5074525;28;20457;-77
2022/04/08 01:19:23;;;;;;;0.70;0.40;;;9.40;99.90;;;;;;5075300;28;20455;-77
2022/04/08 01:21:52;;;;;;;4.10;0.67;;;9.40;99.90;;;;;;5075093;28;20465;-76
2022/04/08 01:24:24;;;;;;;0.60;0.10;;;9.40;99.90;;;;;;5076248;28;20554;-76
2022/04/08 01:26:54;;;;;;;1.03;0.90;;;9.40;99.90;;;;;;5076835;28;20445;-76
2022/04/08 01:29:22;;;;;;;1.37;0.50;;;9.50;99.90;;;;;;5083463;28;20489;-77
2022/04/08 01:31:50;;;;;;;0.60;0.20;;;9.30;99.90;;;;;;5084082;28;20479;-77
2022/04/08 01:34:18;;;;;;;0.60;0.10;;;9.20;99.90;;;;;;5076471;28;20444;-77
2022/04/08 01:36:46;;;;;;;0.60;0.10;;;8.90;1.00;;;;;;5075984;28;20447;-76
2022/04/08 01:39:15;;;;;;;0.60;0.10;;;8.70;1.00;;;;;;5078401;28;20446;-76
2022/04/08 01:41:43;;;;;;;0.70;0.30;;;8.40;1.00;;;;;;5078747;28;20460;-76
2022/04/08 01:44:12;;;;;;;0.60;0.10;;;8.40;1.00;;;;;;5079848;28;20458;-76
2022/04/08 01:46:40;;;;;;;0.60;0.20;;;8.20;1.00;;;;;;5079435;28;20460;-77
2022/04/08 01:49:08;;;;;;;0.60;0.10;;;8.20;1.00;;;;;;5070775;28;20484;-77
2022/04/08 01:51:36;;;;;;;0.60;0.10;;;8.20;1.00;;;;;;5075673;28;20488;-76
2022/04/08 01:54:04;;;;;;;0.60;0.20;;;8.20;1.00;;;;;;5074514;28;20461;-77
2022/04/08 01:56:31;;;;;;;0.60;0.10;;;8.10;1.00;;;;;;5074507;28;20452;-76
2022/04/08 01:59:00;;;;;;;0.60;0.20;;;8.10;1.00;;;;;;5074080;28;20447;-77
2022/04/08 02:01:29;;;;;;;0.60;0.10;;;8.10;1.00;;;;;;5075393;28;20857;-75
2022/04/08 02:03:57;;;;;;;0.60;0.10;;;8.10;1.00;;;;;;5074948;28;20547;-76
2022/04/08 02:06:25;;;;;;;0.60;0.10;;;8.00;1.00;;;;;;5074223;28;21346;-77
2022/04/08 02:08:53;;;;;;;0.60;0.10;;;8.00;1.00;;;;;;5074692;28;20444;-76
2022/04/08 02:11:21;;;;;;;0.60;0.10;;;8.00;1.00;;;;;;5073233;28;20455;-77
2022/04/08 02:13:49;;;;;;;0.60;0.10;;;8.00;1.00;;;;;;5073503;28;20460;-77
2022/04/08 02:16:17;;;;;;;0.60;0.10;;;8.10;1.00;;;;;;5073153;28;20436;-77
2022/04/08 02:18:46;;;;;;;0.60;0.10;;;8.00;1.00;;;;;;5074585;28;20455;-77
2022/04/08 02:21:19;;;;;;;0.60;0.10;;;8.00;1.00;;;;;;5073559;28;20448;-77
2022/04/08 02:23:47;;;;;;;0.60;0.20;;;8.10;1.00;;;;;;5074496;28;20568;-77
2022/04/08 02:26:16;;;;;;;0.60;0.10;;;8.00;1.00;;;;;;5073025;28;20444;-76
2022/04/08 02:28:44;;;;;;;0.60;0.10;;;8.00;1.00;;;;;;5074201;28;20429;-77
2022/04/08 02:31:13;;;;;;;0.60;0.10;;;7.90;1.00;;;;;;5073711;28;20579;-76
2022/04/08 02:33:41;;;;;;;0.90;0.30;;;7.80;1.00;;;;;;5073836;28;20440;-77
2022/04/08 02:36:10;;;;;;;0.70;0.43;;;7.90;1.00;;;;;;5073400;28;20444;-77
2022/04/08 02:38:38;;;;;;;0.60;0.20;;;7.70;1.00;;;;;;5073453;28;20467;-76
2022/04/08 02:41:06;;;;;;;0.50;0.10;;;7.70;1.00;;;;;;5074030;28;20459;-76
2022/04/08 02:43:33;;;;;;;0.60;0.13;;;7.60;1.00;;;;;;5074262;28;20447;-75
2022/04/08 02:46:02;;;;;;;0.60;0.10;;;7.40;1.00;;;;;;5073732;28;20494;-77
2022/04/08 02:48:30;;;;;;;0.80;0.40;;;7.10;1.00;;;;;;5074855;28;20443;-76
2022/04/08 02:50:58;;;;;;;0.60;0.37;;;7.00;1.00;;;;;;5077824;28;20494;-77
2022/04/08 02:53:27;;;;;;;0.60;0.20;;;6.90;1.00;;;;;;5073972;28;20563;-76
2022/04/08 02:55:55;;;;;;;0.90;0.47;;;6.80;1.00;;;;;;5073167;28;20457;-77
2022/04/08 02:58:23;;;;;;;0.60;0.10;;;6.80;1.00;;;;;;5072817;28;20478;-76
2022/04/08 03:00:51;;;;;;;0.77;0.30;;;6.80;1.00;;;;;;5073678;28;20797;-76
2022/04/08 03:03:18;;;;;;;0.60;0.30;;;6.90;1.00;;;;;;5073000;28;20493;-75
2022/04/08 03:05:46;;;;;;;0.60;0.10;;;6.90;1.00;;;;;;5072872;28;20454;-77
2022/04/08 03:08:14;;;;;;;0.60;0.20;;;6.90;1.00;;;;;;5072708;28;20446;-76
2022/04/08 03:10:44;;;;;;;0.60;0.20;;;6.90;1.00;;;;;;5072341;28;20483;-76
2022/04/08 03:13:12;;;;;;;0.60;0.20;;;6.90;1.00;;;;;;5071543;28;20500;-76
2022/04/08 03:15:40;;;;;;;0.60;0.10;;;6.90;1.00;;;;;;5072390;28;20449;-77
2022/04/08 03:18:08;;;;;;;0.50;0.10;;;6.90;1.00;;;;;;5074228;28;20506;-76
2022/04/08 03:20:36;;;;;;;0.60;0.20;;;6.90;1.00;;;;;;5073228;28;20946;-76
2022/04/08 03:23:04;;;;;;;0.60;0.20;;;6.90;1.00;;;;;;5072727;28;20456;-77
2022/04/08 03:25:32;;;;;;;0.60;0.20;;;6.80;1.00;;;;;;5073848;28;20941;-77
2022/04/08 03:28:01;;;;;;;0.50;0.10;;;6.80;1.00;;;;;;5073788;28;20446;-76
2022/04/08 03:30:31;;;;;;;0.50;0.10;;;6.70;1.00;;;;;;5073814;28;20567;-76
2022/04/08 03:32:59;;;;;;;0.60;0.20;;;6.70;1.00;;;;;;5071672;28;20473;-75
2022/04/08 03:35:27;;;;;;;0.60;0.20;;;6.70;1.00;;;;;;5072331;28;20442;-74
2022/04/08 03:37:55;;;;;;;0.60;0.10;;;6.70;1.00;;;;;;5071752;28;20454;-75
2022/04/08 03:40:23;;;;;;;0.60;0.20;;;6.70;1.00;;;;;;5072251;28;20448;-74
2022/04/08 03:42:50;;;;;;;0.80;0.30;;;6.70;1.00;;;;;;5072433;28;20977;-75
2022/04/08 03:45:20;;;;;;;0.60;0.30;;;6.80;1.00;;;;;;5076904;28;20459;-75
2022/04/08 03:47:49;;;;;;;0.60;0.40;;;6.80;1.00;;;;;;5071845;28;20448;-75
2022/04/08 03:50:17;;;;;;;0.70;0.40;;;6.80;1.00;;;;;;5075014;28;20506;-75
2022/04/08 03:52:45;;;;;;;0.70;0.40;;;6.80;1.00;;;;;;5087487;22;21022;-79
2022/04/08 03:55:13;;;;;;;0.70;0.50;;;6.80;1.00;;;;;;5095917;28;20447;-77
2022/04/08 03:57:41;;;;;;;0.50;0.10;;;6.80;1.00;;;;;;5100098;28;20461;-78
2022/04/08 04:00:11;;;;;;;0.50;0.10;;;6.90;1.00;;;;;;5099855;28;20504;-78
2022/04/08 04:02:40;;;;;;;0.57;0.10;;;6.90;1.00;;;;;;5101624;28;20465;-79
2022/04/08 04:05:10;;;;;;;0.83;0.30;;;6.90;1.00;;;;;;5117995;28;20486;-78
2022/04/08 04:07:39;;;;;;;0.60;0.20;;;6.90;1.00;;;;;;5119789;28;20443;-78
2022/04/08 04:10:08;;;;;;;0.50;0.20;;;6.90;1.00;;;;;;5117154;28;20434;-78
2022/04/08 04:12:36;;;;;;;0.50;0.20;;;6.90;1.00;;;;;;5115231;28;20510;-79
2022/04/08 04:15:05;;;;;;;0.57;0.17;;;6.90;1.00;;;;;;5115009;28;20447;-78
2022/04/08 04:17:33;;;;;;;0.93;0.40;;;6.90;1.00;;;;;;5114918;28;20473;-77
2022/04/08 04:20:08;;;;;;;0.60;0.37;;;6.80;1.00;;;;;;5111492;28;21045;-78
2022/04/08 04:22:36;;;;;;;0.50;0.10;;;6.80;1.00;;;;;;5125250;28;20461;-77
2022/04/08 04:25:05;;;;;;;0.50;0.10;;;6.80;1.00;;;;;;5123082;28;20435;-78
2022/04/08 04:27:33;;;;;;;0.70;0.47;;;;;;;;;;5123484;28;20438;-77
2022/04/08 04:30:01;;;;;;;0.50;0.13;;;6.90;1.00;;;;;;5121781;28;20566;-79
2022/04/08 04:32:29;;;;;;;0.50;0.10;;;6.90;1.00;;;;;;5118463;28;20480;-78
2022/04/08 04:34:57;;;;;;;0.60;0.20;;;6.90;1.00;;;;;;5122787;28;20510;-78
2022/04/08 04:37:28;;;;;;;3.13;2.93;;;7.00;1.00;;;;;;5122378;28;20521;-78
2022/04/08 04:39:55;;;;;;;0.50;0.10;;;6.90;1.00;;;;;;5125724;28;20451;-78
2022/04/08 04:42:25;;;;;;;0.50;0.10;;;6.90;1.00;;;;;;5126467;28;20467;-77
2022/04/08 04:44:53;;;;;;;0.50;0.10;;;6.90;1.00;;;;;;5126109;28;20446;-78
2022/04/08 04:47:21;;;;;;;0.57;0.10;;;7.00;1.00;;;;;;5121297;28;20450;-78
2022/04/08 04:49:49;;;;;;;0.50;0.10;;;6.90;1.00;;;;;;5120499;28;20841;-78
2022/04/08 04:52:17;;;;;;;0.50;0.10;;;6.90;1.00;;;;;;5120774;28;20572;-79
2022/04/08 04:54:47;;;;;;;0.60;0.30;;;7.00;1.00;;;;;;5132403;28;20545;-78
2022/04/08 04:57:15;;;;;;;0.60;0.30;;;7.00;1.00;;;;;;5132132;28;20445;-78
2022/04/08 04:59:44;;;;;;;0.50;0.10;;;7.00;1.00;;;;;;5126689;28;20452;-79
2022/04/08 05:02:11;;;;;;;0.50;0.10;;;7.00;1.00;;;;;;5121791;28;20445;-78
2022/04/08 05:04:40;;;;;;;0.60;0.37;;;7.10;1.00;;;;;;5122189;28;20849;-79
2022/04/08 05:07:08;;;;;;;0.53;0.20;;;7.10;1.00;;;;;;5121478;28;20821;-77
2022/04/08 05:09:39;;;;;;;0.50;0.10;;;7.10;1.00;;;;;;5126527;28;20442;-78
2022/04/08 05:12:10;;;;;;;0.80;0.57;;;7.10;1.00;;;;;;5129660;28;20545;-79
2022/04/08 05:14:38;;;;;;;0.60;0.20;;;7.10;1.00;;;;;;5129246;28;20521;-78
2022/04/08 05:17:06;;;;;;;0.50;0.10;;;7.10;1.00;;;;;;5124095;28;20537;-79
2022/04/08 05:19:34;;;;;;;0.50;0.10;;;7.20;1.00;;;;;;5121695;28;20458;-78
2022/04/08 05:22:02;;;;;;;0.60;0.20;;;7.10;1.00;;;;;;5117155;28;20433;-78
2022/04/08 05:24:30;;;;;;;0.60;0.20;;;7.10;1.00;;;;;;5105610;28;20465;-78
2022/04/08 05:26:58;;;;;;;0.50;0.10;;;7.20;1.00;;;;;;5119801;28;20468;-79
2022/04/08 05:29:27;;;;;;;0.73;0.40;;;7.10;1.00;;;;;;5121231;28;20785;-79
2022/04/08 05:31:56;;;;;;;0.50;0.10;;;7.20;1.00;;;;;;5120598;28;20481;-78
2022/04/08 05:34:24;;;;;;;0.60;0.10;;;7.20;1.00;;;;;;5121638;28;20468;-78
2022/04/08 05:36:52;;;;;;;0.50;0.20;;;7.20;1.00;;;;;;5119730;28;20943;-78
2022/04/08 05:39:20;;;;;;;0.70;0.30;;;;;;;;;;5121392;27;20441;-79
2022/04/08 05:41:48;;;;;;;0.73;0.40;;;7.20;1.00;;;;;;5121880;28;20798;-78
2022/04/08 05:44:17;;;;;;;0.50;0.10;;;7.20;1.00;;;;;;5117636;28;20483;-78
2022/04/08 05:46:46;;;;;;;0.80;0.50;;;7.20;1.00;;;;;;5119201;28;20545;-78
2022/04/08 05:49:14;;;;;;;0.60;0.10;;;7.30;1.00;;;;;;5121994;28;20518;-78
2022/04/08 05:51:42;;;;;;;0.50;0.10;;;7.40;1.00;;;;;;5121044;28;20477;-78
2022/04/08 05:54:10;;;;;;;0.50;0.10;;;7.40;1.00;;;;;;5118508;28;20476;-77
2022/04/08 05:56:37;;;;;;;0.50;0.10;;;7.50;1.00;;;;;;5113189;28;20469;-78
2022/04/08 05:59:05;;;;;;;0.50;0.10;;;7.60;1.00;;;;;;5121456;28;20522;-78
2022/04/08 06:01:34;;;;;;;0.60;0.10;;;7.70;1.00;;;;;;5115290;28;20467;-78
2022/04/08 06:04:03;;;;;;;0.50;0.10;;;7.80;1.00;;;;;;5119876;28;20499;-78
2022/04/08 06:06:31;;;;;;;0.60;0.10;;;7.90;1.00;;;;;;5107662;28;20554;-78
2022/04/08 06:09:01;;;;;;;0.60;0.10;;;7.90;1.00;;;;;;5111889;28;20471;-73
2022/04/08 06:11:29;;;;;;;0.60;0.10;;;8.00;1.00;;;;;;5107464;28;20574;-79
2022/04/08 06:13:57;;;;;;;0.60;0.10;;;8.20;1.00;;;;;;5122519;28;20592;-77
2022/04/08 06:16:25;;;;;;;0.60;0.10;;;8.30;1.00;;;;;;5122252;28;20447;-77
2022/04/08 06:18:57;;;;;;;0.60;0.10;;;;;;;;;;5111465;28;20476;-77
2022/04/08 06:21:26;;;;;;;0.60;0.10;;;8.40;1.00;;;;;;5125204;28;20431;-76
2022/04/08 06:23:54;;;;;;;0.60;0.10;;;8.30;1.00;;;;;;5114183;28;20885;-78
2022/04/08 06:26:27;;;;;;;0.60;0.10;;;8.20;1.00;;;;;;5118702;28;20447;-78
2022/04/08 06:28:55;;;;;;;0.60;0.10;;;8.20;1.00;;;;;;5119234;28;20461;-78
2022/04/08 06:31:24;;;;;;;0.60;0.10;;;8.20;1.00;;;;;;5116703;28;21064;-78
2022/04/08 06:33:52;;;;;;;0.60;0.10;;;8.20;1.00;;;;;;5116687;28;20538;-79
2022/04/08 06:36:20;;;;;;;0.60;0.10;;;8.30;1.00;;;;;;5117783;28;20468;-77
2022/04/08 06:38:49;;;;;;;0.60;0.10;;;8.30;1.00;;;;;;5119540;28;20522;-79
2022/04/08 06:41:18;;;;;;;0.60;0.10;;;8.50;1.00;;;;;;5123168;28;20457;-78
2022/04/08 06:43:46;;;;;;;0.60;0.10;;;8.60;1.00;;;;;;5126478;28;20553;-76
2022/04/08 06:46:14;;;;;;;0.60;0.10;;;8.70;1.00;;;;;;5121975;28;20504;-78
2022/04/08 06:48:42;;;;;;;0.60;0.10;;;8.90;1.00;;;;;;5118972;28;20485;-78
2022/04/08 06:51:10;;;;;;;0.60;0.10;;;8.90;1.00;;;;;;5118093;28;20460;-78
2022/04/08 06:53:42;;;;;;;0.60;0.10;;;9.10;1.00;;;;;;5117625;28;20565;-78
2022/04/08 06:56:11;;;;;;;0.60;0.10;;;9.10;1.00;;;;;;5119970;28;20454;-77
2022/04/08 06:58:39;;;;;;;0.60;0.10;;;9.30;1.00;;;;;;5126748;28;20456;-75
2022/04/08 07:01:07;;;;;;;0.60;0.10;;;9.30;1.00;;;;;;5124507;28;20491;-78
2022/04/08 07:03:36;;;;;;;0.60;0.10;;;9.40;1.00;;;;;;5119284;28;20517;-77
2022/04/08 07:06:04;;;;;;;0.60;0.10;;;9.40;1.00;;;;;;5123271;28;20443;-77
2022/04/08 07:08:33;;;;;;;0.60;0.10;;;9.50;1.00;;;;;;5125039;28;20427;-76
2022/04/08 07:11:01;;;;;;;0.60;0.10;;;9.40;1.00;;;;;;5122852;28;20473;-77
2022/04/08 07:13:31;;;;;;;0.60;0.10;;;9.40;1.00;;;;;;5118847;28;20505;-78
2022/04/08 07:15:59;;;;;;;0.60;0.10;;;9.40;1.00;;;;;;5121003;28;20497;-77
2022/04/08 07:18:27;;;;;;;0.60;0.10;;;9.40;1.00;;;;;;5123105;28;20474;-77
2022/04/08 07:20:55;;;;;;;0.60;0.10;;;9.40;1.00;;;;;;5120193;28;20489;-77
2022/04/08 07:23:23;;;;;;;1.13;0.73;;;9.40;1.00;;;;;;5115417;28;20470;-77
2022/04/08 07:25:51;;;;;;;0.60;0.10;;;9.30;1.00;;;;;;5118810;28;20444;-78
2022/04/08 07:28:20;;;;;;;0.60;0.10;;;9.30;1.00;;;;;;5119437;28;20440;-78
2022/04/08 07:30:51;;;;;;;0.60;0.10;;;;;;;;;;5108580;28;20448;-77
2022/04/08 07:33:19;;;;;;;0.60;0.10;;;9.20;1.00;;;;;;5101234;28;20562;-78
2022/04/08 07:35:47;;;;;;;1.10;0.30;;;9.20;1.00;;;;;;5101012;28;20458;-77
2022/04/08 07:38:14;;;;;;;0.60;0.20;;;9.00;1.00;;;;;;5103089;28;20521;-78
2022/04/08 07:40:43;;;;;;;0.70;0.33;;;9.00;1.00;;;;;;5121393;28;20527;-79
2022/04/08 07:43:13;;;;;;;0.60;0.10;;;9.00;1.00;;;;;;5121781;28;20530;-77
2022/04/08 07:45:41;;;;;;;0.60;0.10;;;9.00;1.00;;;;;;5122582;28;20446;-78
2022/04/08 07:48:10;;;;;;;0.60;0.10;;;8.90;1.00;;;;;;5114662;28;20459;-78
2022/04/08 07:50:39;;;;;;;0.60;0.10;;;8.90;1.00;;;;;;5117674;28;20484;-78
2022/04/08 07:53:07;;;;;;;0.60;0.10;;;9.00;1.00;;;;;;5122614;28;21070;-77
2022/04/08 07:55:35;;;;;;;0.60;0.10;;;9.10;1.00;;;;;;5124310;28;20513;-77
2022/04/08 07:58:05;;;;;;;0.60;0.10;;;9.20;1.00;;;;;;5119326;28;20462;-78
2022/04/08 08:00:34;;;;;;;0.60;0.13;;;9.20;1.00;;;;;;5100155;28;20995;-78
2022/04/08 08:03:03;;;;;;;0.60;0.10;;;9.20;1.00;;;;;;5107608;28;20470;-78
2022/04/08 08:05:33;;;;;;;0.60;0.10;;;9.30;1.00;;;;;;5116040;28;20489;-77
2022/04/08 08:08:03;;;;;;;1.13;0.93;;;9.30;1.00;;;;;;5116076;28;20492;-78
2022/04/08 08:10:33;;;;;;;0.60;0.10;;;9.30;1.00;;;;;;5115450;28;20473;-76
2022/04/08 08:13:02;;;;;;;0.60;0.43;;;9.40;1.00;;;;;;5111930;28;21018;-79
2022/04/08 08:15:32;;;;;;;0.90;0.30;;;9.30;1.00;;;;;;5109805;28;20464;-80
2022/04/08 08:18:00;;;;;;;0.70;0.30;;;9.10;1.00;;;;;;5118490;27;20520;-79
2022/04/08 08:20:29;;;;;;;0.80;0.30;;;;;;;;;;5121604;28;20889;-78
2022/04/08 08:22:58;;;;;;;0.60;0.10;;;;;;;;;;5124677;28;20473;-78
2022/04/08 08:25:27;;;;;;;1.23;1.13;;;9.20;1.00;;;;;;5127969;28;20430;-76
2022/04/08 08:27:59;;;;;;;0.60;0.10;;;9.20;1.00;;;;;;5126646;28;20453;-78
2022/04/08 08:30:29;;;;;;;0.60;0.10;;;9.20;1.00;;;;;;5116511;28;20475;-78
2022/04/08 08:32:58;;;;;;;0.60;0.10;;;9.30;1.00;;;;;;5102980;28;20482;-78
2022/04/08 08:35:27;;;;;;;0.60;0.10;;;9.30;1.00;;;;;;5117293;28;20513;-79
2022/04/08 08:38:01;;;;;;;2.80;1.33;;;;;;;;;;5115284;28;20820;-78
2022/04/08 08:40:32;;;;;;;0.60;0.10;;;9.20;1.00;;;;;;5106807;28;20457;-79
2022/04/08 08:43:07;;;;;;;2.83;2.63;;;8.90;1.00;;;;;;5117122;28;20465;-78
2022/04/08 08:45:35;;;;;;;3.70;1.33;;;8.90;1.00;;;;;;5114934;28;20456;-78
2022/04/08 08:48:05;;;;;;;0.60;0.23;;;8.90;1.00;;;;;;5108679;28;20473;-78
2022/04/08 08:50:33;;;;;;;0.60;0.20;;;;;;;;;;5116385;28;20525;-78
2022/04/08 08:53:02;;;;;;;0.60;0.30;;;8.90;1.00;;;;;;5113594;28;20588;-76
2022/04/08 08:55:30;;;;;;;17.33;0.63;;;8.90;1.00;;;;;;5115672;28;20522;-78
2022/04/08 08:58:01;;;;;;;0.60;0.10;;;;;;;;;;5107886;28;20454;-78
2022/04/08 09:00:30;;;;;;;1.23;1.13;;;9.50;1.00;;;;;;5114049;28;20467;-78
2022/04/08 09:02:58;;;;;;;0.60;0.10;;;9.10;1.00;;;;;;5116077;28;20497;-78
2022/04/08 09:05:27;;;;;;;0.60;0.10;;;9.20;1.00;;;;;;5118457;28;20471;-77
2022/04/08 09:07:56;;;;;;;0.60;0.10;;;9.20;1.00;;;;;;5111442;28;20852;-77
2022/04/08 09:10:30;;;;;;;0.80;0.50;;;9.20;1.00;;;;;;5114443;28;20447;-78
2022/04/08 09:13:00;;;;;;;0.60;0.10;;;9.20;1.00;;;;;;5111604;28;20490;-78
2022/04/08 09:15:29;;;;;;;0.60;0.10;;;9.10;1.00;;;;;;5106780;28;20461;-78
2022/04/08 09:18:07;;;;;;;0.60;0.10;;;9.20;1.00;;;;;;5114860;28;20451;-77
2022/04/08 09:20:41;;;;;;;0.60;0.10;;;9.20;1.00;;;;;;5112246;28;20448;-78
2022/04/08 09:23:10;;;;;;;0.70;0.30;;;9.30;1.00;;;;;;5123759;28;20446;-78
2022/04/08 09:25:40;;;;;;;0.80;0.57;;;9.30;1.00;;;;;;5126999;28;20435;-79
2022/04/08 09:28:11;;;;;;;0.60;0.10;;;9.20;1.00;;;;;;5123153;28;20507;-78
2022/04/08 09:30:39;;;;;;;0.60;0.10;;;9.10;1.00;;;;;;5111982;28;20447;-79
2022/04/08 09:33:16;;;;;;;0.60;0.10;;;;;;;;;;5122880;28;20560;-79
2022/04/08 09:35:44;;;;;;;0.60;0.10;;;9.10;1.00;;;;;;5118306;28;20441;-79
2022/04/08 09:38:12;;;;;;;0.60;0.10;;;9.10;1.00;;;;;;5117427;28;20434;-80
2022/04/08 09:40:43;;;;;;;0.60;0.10;;;9.10;1.00;;;;;;5114282;28;20697;-79
2022/04/08 09:43:13;;;;;;;0.60;0.10;;;9.10;1.00;;;;;;5110561;28;21093;-78
2022/04/08 09:45:44;;;;;;;0.60;0.10;;;9.00;1.00;;;;;;5121257;28;20505;-79
2022/04/08 09:48:12;;;;;;;0.60;0.10;;;9.00;1.00;;;;;;5113758;28;20458;-80
2022/04/08 09:50:42;;;;;;;0.60;0.10;;;9.00;1.00;;;;;;5122045;28;20435;-79
2022/04/08 09:53:12;;;;;;;0.60;0.20;;;9.00;1.00;;;;;;5119837;28;20462;-78
2022/04/08 09:55:43;;;;;;;0.80;0.60;;;8.90;1.00;;;;;;5111714;28;20448;-78
2022/04/08 09:58:14;;;;;;;0.60;0.10;;;8.60;1.00;;;;;;5120723;28;20449;-79
2022/04/08 10:00:44;;;;;;;0.60;0.10;;;8.30;1.00;;;;;;5124091;28;20465;-80
2022/04/08 10:03:13;;;;;;;0.80;0.40;;;8.30;1.00;;;;;;5126530;28;20483;-79
2022/04/08 10:05:41;;;;;;;0.80;0.20;;;8.20;1.00;;;;;;5110768;27;20458;-79
2022/04/08 10:08:10;;;;;;;0.60;0.20;;;;;;;;;;5104512;28;20424;-79
2022/04/08 10:10:41;;;;;;;0.60;0.10;;;;;;;;;;5104049;28;20455;-79
2022/04/08 10:13:22;;;;;;;0.60;0.10;;;7.90;1.00;;;;;;5105861;28;20892;-79
2022/04/08 10:16:02;;;;;;;0.60;0.40;;;7.90;1.00;;;;;;5108907;28;20535;-79
2022/04/08 10:18:37;;;;;;;0.60;0.10;;;7.90;1.00;;;;;;5116975;28;20452;-79
2022/04/08 10:21:07;;;;;;;0.60;0.10;;;;;;;;;;5120400;28;20441;-79
2022/04/08 10:23:37;;;;;;;0.60;0.10;;;8.10;1.00;;;;;;5122219;28;20492;-78
2022/04/08 10:26:08;;;;;;;0.60;0.10;;;8.10;1.00;;;;;;5120959;28;20468;-79
2022/04/08 10:28:41;;;;;;;0.60;0.10;;;8.20;1.00;;;;;;5120529;28;20457;-78
2022/04/08 10:31:20;;;;;;;0.60;0.20;;;8.30;1.00;;;;;;5122046;28;20441;-79
2022/04/08 10:33:50;;;;;;;1.73;1.20;;;8.40;1.00;;;;;;5123375;28;20488;-78
2022/04/08 10:36:18;;;;;;;0.60;0.20;;;8.30;1.00;;;;;;5128076;28;20525;-78
2022/04/08 10:38:46;;;;;;;0.57;0.20;;;8.20;1.00;;;;;;5125364;28;20473;-77
2022/04/08 10:41:14;;;;;;;0.60;0.10;;;8.20;1.00;;;;;;5124331;28;20513;-79
2022/04/08 10:43:45;;;;;;;0.50;0.10;;;8.20;1.00;;;;;;5120489;28;20502;-79
2022/04/08 10:46:14;;;;;;;0.60;0.10;;;8.20;1.00;;;;;;5123336;28;20434;-78
2022/04/08 10:48:41;;;;;;;0.50;0.10;;;10.20;1.00;;;;;;5113399;28;21119;-77
2022/04/08 10:51:14;;;;;;;0.60;0.30;;;8.10;1.00;;;;;;5116712;28;20437;-78
2022/04/08 10:53:43;;;;;;;0.80;0.80;;;8.00;1.00;;;;;;5118970;28;20478;-78
2022/04/08 10:56:13;;;;;;;0.60;0.10;;;8.00;1.00;;;;;;5119991;28;20452;-77
2022/04/08 10:58:42;;;;;;;0.50;0.10;;;7.90;1.00;;;;;;5119922;28;20445;-79
2022/04/08 11:01:16;;;;;;;0.50;0.17;;;7.90;1.00;;;;;;5132048;28;20435;-78
2022/04/08 11:03:53;;;;;;;0.50;0.10;;;7.80;1.00;;;;;;5130277;28;20465;-78
2022/04/08 11:06:24;;;;;;;0.60;0.20;;;7.80;1.00;;;;;;5127646;28;20525;-79
2022/04/08 11:08:57;;;;;;;0.50;0.10;;;7.60;1.00;;;;;;5131105;28;20834;-78
2022/04/08 11:11:29;;;;;;;0.50;0.10;;;7.50;1.00;;;;;;5129383;28;20437;-78
2022/04/08 11:13:59;;;;;;;0.60;0.17;;;7.50;1.00;;;;;;5118340;28;20505;-79
2022/04/08 11:16:33;;;;;;;0.60;0.20;;;7.50;1.00;;;;;;5124613;28;21123;-79
2022/04/08 11:19:05;;;;;;;0.50;0.20;;;7.40;1.00;;;;;;5124960;28;20445;-78
2022/04/08 11:21:35;;;;;;;0.60;0.20;;;7.30;1.00;;;;;;5114789;28;20483;-79
2022/04/08 11:24:05;;;;;;;0.97;0.77;;;7.20;1.00;;;;;;5121613;28;20477;-78
2022/04/08 11:26:44;;;;;;;0.60;0.40;;;7.10;1.00;;;;;;5121487;27;20446;-79
2022/04/08 11:29:17;;;;;;;0.60;0.30;;;7.10;1.00;;;;;;5120916;28;20445;-79
2022/04/08 11:31:48;;;;;;;0.70;0.60;;;7.10;1.00;;;;;;5127636;27;20452;-79
2022/04/08 11:34:17;;;;;;;0.50;0.10;;;7.20;1.00;;;;;;5121250;27;20480;-79
2022/04/08 11:36:45;;;;;;;0.50;0.10;;;7.30;1.00;;;;;;5120778;28;20476;-79
2022/04/08 11:39:20;;;;;;;0.50;0.10;;;;;;;;;;5122562;28;20439;-79
2022/04/08 11:41:53;;;;;;;0.50;0.10;;;;;;;;;;5129225;28;20433;-80
2022/04/08 11:44:22;;;;;;;0.50;0.10;;;7.30;1.00;;;;;;5135057;27;20578;-80
2022/04/08 11:46:52;;;;;;;0.50;0.10;;;7.40;1.00;;;;;;5117387;28;20493;-79
2022/04/08 11:49:24;;;;;;;0.50;0.10;;;7.50;1.00;;;;;;5117465;28;20501;-79
2022/04/08 11:52:04;;;;;;;0.50;0.10;;;;;;;;;;5117526;28;20449;-79
2022/04/08 11:54:37;;;;;;;0.60;0.20;;;7.50;1.00;;;;;;5130776;28;20470;-79
2022/04/08 11:57:28;;;;;;;0.50;0.10;;;7.40;1.00;;;;;;5124274;28;20923;-79
2022/04/08 11:59:57;;;;;;;0.50;0.10;;;7.40;1.00;;;;;;5117393;28;20475;-79
2022/04/08 12:02:26;;;;;;;0.50;0.10;;;6.40;1.00;;;;;;5117073;28;20473;-80
2022/04/08 12:04:54;;;;;;;0.50;0.10;;;7.50;1.00;;;;;;5118050;28;20512;-80
2022/04/08 12:07:23;;;;;;;0.50;0.10;;;7.60;1.00;;;;;;5120304;28;20541;-80
2022/04/08 12:09:52;;;;;;;0.50;0.10;;;7.60;1.00;;;;;;5118017;28;20434;-80
2022/04/08 12:12:24;;;;;;;0.50;0.10;;;7.70;1.00;;;;;;5118764;28;20435;-79
2022/04/08 12:14:54;;;;;;;0.50;0.10;;;;;;;;;;5116189;28;20567;-79
2022/04/08 12:17:22;;;;;;;0.50;0.10;;;7.60;1.00;;;;;;5115725;28;20967;-79
2022/04/08 12:19:52;;;;;;;0.50;0.10;;;7.60;1.00;;;;;;5126344;28;20950;-79
2022/04/08 12:22:21;;;;;;;0.50;0.10;;;7.50;1.00;;;;;;5121366;28;20863;-78
2022/04/08 12:24:49;;;;;;;0.50;0.10;;;7.60;1.00;;;;;;5116300;28;20434;-79
2022/04/08 12:27:22;;;;;;;0.50;0.10;;;7.60;1.00;;;;;;5115770;28;20450;-79
2022/04/08 12:29:59;;;;;;;0.50;0.10;;;7.60;1.00;;;;;;5116277;28;20464;-79
2022/04/08 12:32:34;;;;;;;0.50;0.10;;;7.40;1.00;;;;;;5115675;28;20565;-79
2022/04/08 12:35:06;;;;;;;0.50;0.10;;;7.40;1.00;;;;;;5116387;28;20480;-79
2022/04/08 12:37:34;;;;;;;0.50;0.10;;;7.40;1.00;;;;;;5115890;28;20487;-79
2022/04/08 12:40:02;;;;;;;0.50;0.10;;;7.30;1.00;;;;;;5116621;28;20543;-80
2022/04/08 12:42:30;;;;;;;0.50;0.10;;;7.30;1.00;;;;;;5116777;28;20488;-80
2022/04/08 12:44:59;;;;;;;0.60;0.10;;;7.30;1.00;;;;;;5115753;28;20449;-79
2022/04/08 12:47:27;;;;;;;0.50;0.10;;;7.30;1.00;;;;;;5115598;28;20454;-79
2022/04/08 12:50:01;;;;;;;0.50;0.10;;;7.20;1.00;;;;;;5112042;28;20459;-79
2022/04/08 12:52:30;;;;;;;0.50;0.10;;;7.30;1.00;;;;;;5103528;28;20853;-79
2022/04/08 12:54:58;;;;;;;0.50;0.10;;;7.30;1.00;;;;;;5113404;28;20485;-77
2022/04/08 12:57:28;;;;;;;0.50;0.10;;;7.30;1.00;;;;;;5115802;28;20847;-79
2022/04/08 13:01:00;;;;;;;0.50;0.10;;;7.40;1.00;;;;;;5114616;28;20468;-79
2022/04/08 13:03:43;;;;;;;0.50;0.10;;;;;;;;;;5100601;28;20472;-79
2022/04/08 13:09:40;;;;;;;0.50;0.10;;;;;;;;;;5075457;28;20490;-78
2022/04/08 13:12:37;;;;;;;0.50;0.10;;;;;;;;;;5077628;28;20467;-79
2022/04/08 13:15:23;;;;;;;0.50;0.10;;;;;;;;;;5099744;28;20477;-79
2022/04/08 13:18:09;;;;;;;0.50;0.10;;;;;;;;;;5112526;28;20457;-79
2022/04/08 13:20:55;;;;;;;0.50;0.10;;;;;;;;;;5105839;28;20468;-79
2022/04/08 13:23:41;;;;;;;0.50;0.10;;;;;;;;;;5114254;28;20469;-79
2022/04/08 13:26:10;;;;;;;0.57;0.10;;;7.50;1.00;;;;;;5119063;28;20461;-79
2022/04/08 13:28:39;;;;;;;0.60;0.10;;;;;;;;;;5113935;28;21015;-79